sensor_id;sensor_type;location;lat;lon;timestamp;temperature;humidity
44723;DHT22;30451;48.638;10.624;2023-04-24T00:00:15;24.20;48.80
44723;DHT22;30451;48.638;10.624;2023-04-24T00:02:44;24.10;48.80
44723;DHT22;30451;48.638;10.624;2023-04-24T00:05:13;24.10;48.80
44723;DHT22;30451;48.638;10.624;2023-04-24T00:07:39;24.10;48.80
44723;DHT22;30451;48.638;10.624;2023-04-24T00:10:06;24.10;48.80
44723;DHT22;30451;48.638;10.624;2023-04-24T00:12:32;24.10;48.80
44723;DHT22;30451;48.638;10.624;2023-04-24T00:14:57;24.10;48.80
44723;DHT22;30451;48.638;10.624;2023-04-24T00:17:23;24.10;49.40
44723;DHT22;30451;48.638;10.624;2023-04-24T00:19:49;24.10;48.80
44723;DHT22;30451;48.638;10.624;2023-04-24T00:22:17;24.10;48.80
44723;DHT22;30451;48.638;10.624;2023-04-24T00:24:43;24.10;48.80
44723;DHT22;30451;48.638;10.624;2023-04-24T00:27:08;24.10;48.90
44723;DHT22;30451;48.638;10.624;2023-04-24T00:29:34;24.10;48.80
44723;DHT22;30451;48.638;10.624;2023-04-24T00:32:00;24.10;48.90
44723;DHT22;30451;48.638;10.624;2023-04-24T00:34:25;24.10;48.90
44723;DHT22;30451;48.638;10.624;2023-04-24T00:36:51;24.00;48.80
44723;DHT22;30451;48.638;10.624;2023-04-24T00:39:20;24.00;48.80
44723;DHT22;30451;48.638;10.624;2023-04-24T00:41:46;24.00;48.80
44723;DHT22;30451;48.638;10.624;2023-04-24T00:44:13;24.00;48.80
44723;DHT22;30451;48.638;10.624;2023-04-24T00:46:39;24.00;48.80
44723;DHT22;30451;48.638;10.624;2023-04-24T00:49:05;24.00;48.80
44723;DHT22;30451;48.638;10.624;2023-04-24T00:51:31;24.00;48.80
44723;DHT22;30451;48.638;10.624;2023-04-24T00:53:58;24.00;48.90
44723;DHT22;30451;48.638;10.624;2023-04-24T00:56:24;24.00;48.90
44723;DHT22;30451;48.638;10.624;2023-04-24T00:58:50;23.90;48.80
44723;DHT22;30451;48.638;10.624;2023-04-24T01:01:16;23.90;48.80
44723;DHT22;30451;48.638;10.624;2023-04-24T01:03:42;24.00;48.90
44723;DHT22;30451;48.638;10.624;2023-04-24T01:06:09;23.90;48.90
44723;DHT22;30451;48.638;10.624;2023-04-24T01:08:36;23.90;48.90
44723;DHT22;30451;48.638;10.624;2023-04-24T01:11:03;23.90;48.90
44723;DHT22;30451;48.638;10.624;2023-04-24T01:13:29;23.90;48.90
44723;DHT22;30451;48.638;10.624;2023-04-24T01:15:55;23.90;48.90
44723;DHT22;30451;48.638;10.624;2023-04-24T01:18:20;23.90;48.90
44723;DHT22;30451;48.638;10.624;2023-04-24T01:20:49;23.90;48.90
44723;DHT22;30451;48.638;10.624;2023-04-24T01:23:17;23.90;48.90
44723;DHT22;30451;48.638;10.624;2023-04-24T01:25:42;23.90;48.90
44723;DHT22;30451;48.638;10.624;2023-04-24T01:28:08;23.90;48.90
44723;DHT22;30451;48.638;10.624;2023-04-24T01:30:34;23.90;49.00
44723;DHT22;30451;48.638;10.624;2023-04-24T01:33:00;23.90;49.00
44723;DHT22;30451;48.638;10.624;2023-04-24T01:35:26;23.90;49.00
44723;DHT22;30451;48.638;10.624;2023-04-24T01:37:52;23.90;49.00
44723;DHT22;30451;48.638;10.624;2023-04-24T01:40:18;23.80;48.90
44723;DHT22;30451;48.638;10.624;2023-04-24T01:42:43;23.80;48.90
44723;DHT22;30451;48.638;10.624;2023-04-24T01:45:11;23.80;49.00
44723;DHT22;30451;48.638;10.624;2023-04-24T01:47:39;23.80;48.90
44723;DHT22;30451;48.638;10.624;2023-04-24T01:50:05;23.80;48.90
44723;DHT22;30451;48.638;10.624;2023-04-24T01:52:31;23.80;48.90
44723;DHT22;30451;48.638;10.624;2023-04-24T01:55:02;23.80;48.90
44723;DHT22;30451;48.638;10.624;2023-04-24T01:57:30;23.80;49.00
44723;DHT22;30451;48.638;10.624;2023-04-24T01:59:56;23.80;48.90
44723;DHT22;30451;48.638;10.624;2023-04-24T02:02:22;23.80;49.00
44723;DHT22;30451;48.638;10.624;2023-04-24T02:04:49;23.80;49.00
44723;DHT22;30451;48.638;10.624;2023-04-24T02:07:15;23.80;49.00
44723;DHT22;30451;48.638;10.624;2023-04-24T02:09:41;23.80;49.00
44723;DHT22;30451;48.638;10.624;2023-04-24T02:12:07;23.80;49.00
44723;DHT22;30451;48.638;10.624;2023-04-24T02:14:32;23.70;48.90
44723;DHT22;30451;48.638;10.624;2023-04-24T02:16:58;23.70;49.00
44723;DHT22;30451;48.638;10.624;2023-04-24T02:19:23;23.70;48.90
44723;DHT22;30451;48.638;10.624;2023-04-24T02:21:49;23.70;48.90
44723;DHT22;30451;48.638;10.624;2023-04-24T02:24:15;23.70;49.00
44723;DHT22;30451;48.638;10.624;2023-04-24T02:26:41;23.70;49.00
44723;DHT22;30451;48.638;10.624;2023-04-24T02:29:06;23.70;49.00
44723;DHT22;30451;48.638;10.624;2023-04-24T02:31:32;23.70;49.00
44723;DHT22;30451;48.638;10.624;2023-04-24T02:33:57;23.70;49.00
44723;DHT22;30451;48.638;10.624;2023-04-24T02:36:23;23.70;49.00
44723;DHT22;30451;48.638;10.624;2023-04-24T02:38:49;23.70;49.00
44723;DHT22;30451;48.638;10.624;2023-04-24T02:41:14;23.70;49.00
44723;DHT22;30451;48.638;10.624;2023-04-24T02:43:40;23.70;49.00
44723;DHT22;30451;48.638;10.624;2023-04-24T02:46:05;23.70;49.00
44723;DHT22;30451;48.638;10.624;2023-04-24T02:48:31;23.70;49.00
44723;DHT22;30451;48.638;10.624;2023-04-24T02:50:57;23.70;49.00
44723;DHT22;30451;48.638;10.624;2023-04-24T02:53:23;23.70;49.00
44723;DHT22;30451;48.638;10.624;2023-04-24T02:55:48;23.60;49.00
44723;DHT22;30451;48.638;10.624;2023-04-24T02:58:14;23.60;49.00
44723;DHT22;30451;48.638;10.624;2023-04-24T03:00:41;23.60;49.00
44723;DHT22;30451;48.638;10.624;2023-04-24T03:03:06;23.60;49.00
44723;DHT22;30451;48.638;10.624;2023-04-24T03:05:32;23.60;49.00
44723;DHT22;30451;48.638;10.624;2023-04-24T03:07:58;23.60;49.00
44723;DHT22;30451;48.638;10.624;2023-04-24T03:10:23;23.70;49.10
44723;DHT22;30451;48.638;10.624;2023-04-24T03:12:49;23.60;49.00
44723;DHT22;30451;48.638;10.624;2023-04-24T03:15:15;23.60;49.00
44723;DHT22;30451;48.638;10.624;2023-04-24T03:17:41;23.60;49.00
44723;DHT22;30451;48.638;10.624;2023-04-24T03:20:07;23.60;49.00
44723;DHT22;30451;48.638;10.624;2023-04-24T03:22:36;23.60;49.00
44723;DHT22;30451;48.638;10.624;2023-04-24T03:25:01;23.60;49.10
44723;DHT22;30451;48.638;10.624;2023-04-24T03:27:27;23.60;49.00
44723;DHT22;30451;48.638;10.624;2023-04-24T03:29:53;23.60;49.10
44723;DHT22;30451;48.638;10.624;2023-04-24T03:32:21;23.50;49.00
44723;DHT22;30451;48.638;10.624;2023-04-24T03:34:47;23.60;49.00
44723;DHT22;30451;48.638;10.624;2023-04-24T03:37:13;23.60;49.10
44723;DHT22;30451;48.638;10.624;2023-04-24T03:39:38;23.60;49.10
44723;DHT22;30451;48.638;10.624;2023-04-24T03:42:04;23.50;49.00
44723;DHT22;30451;48.638;10.624;2023-04-24T03:44:30;23.50;49.00
44723;DHT22;30451;48.638;10.624;2023-04-24T03:46:55;23.50;49.00
44723;DHT22;30451;48.638;10.624;2023-04-24T03:49:23;23.50;49.00
44723;DHT22;30451;48.638;10.624;2023-04-24T03:51:48;23.50;49.00
44723;DHT22;30451;48.638;10.624;2023-04-24T03:54:14;23.50;49.00
44723;DHT22;30451;48.638;10.624;2023-04-24T03:56:39;23.50;49.00
44723;DHT22;30451;48.638;10.624;2023-04-24T03:59:05;23.50;49.10
44723;DHT22;30451;48.638;10.624;2023-04-24T04:01:31;23.50;49.00
44723;DHT22;30451;48.638;10.624;2023-04-24T04:03:56;23.50;49.10
44723;DHT22;30451;48.638;10.624;2023-04-24T04:06:22;23.50;49.00
44723;DHT22;30451;48.638;10.624;2023-04-24T04:08:48;23.50;49.10
44723;DHT22;30451;48.638;10.624;2023-04-24T04:11:13;23.50;49.10
44723;DHT22;30451;48.638;10.624;2023-04-24T04:13:39;23.50;49.10
44723;DHT22;30451;48.638;10.624;2023-04-24T04:16:05;23.50;49.10
44723;DHT22;30451;48.638;10.624;2023-04-24T04:18:30;23.50;49.10
44723;DHT22;30451;48.638;10.624;2023-04-24T04:20:56;23.50;49.10
44723;DHT22;30451;48.638;10.624;2023-04-24T04:23:22;23.50;49.10
44723;DHT22;30451;48.638;10.624;2023-04-24T04:25:48;23.50;49.20
44723;DHT22;30451;48.638;10.624;2023-04-24T04:28:15;23.50;49.20
44723;DHT22;30451;48.638;10.624;2023-04-24T04:30:42;23.50;49.20
44723;DHT22;30451;48.638;10.624;2023-04-24T04:33:07;23.50;49.20
44723;DHT22;30451;48.638;10.624;2023-04-24T04:35:33;23.50;49.20
44723;DHT22;30451;48.638;10.624;2023-04-24T04:37:59;23.40;49.20
44723;DHT22;30451;48.638;10.624;2023-04-24T04:40:26;23.50;49.20
44723;DHT22;30451;48.638;10.624;2023-04-24T04:42:52;23.40;49.10
44723;DHT22;30451;48.638;10.624;2023-04-24T04:45:19;23.40;49.10
44723;DHT22;30451;48.638;10.624;2023-04-24T04:47:46;23.40;49.10
44723;DHT22;30451;48.638;10.624;2023-04-24T04:50:11;23.40;49.10
44723;DHT22;30451;48.638;10.624;2023-04-24T04:52:37;23.40;49.10
44723;DHT22;30451;48.638;10.624;2023-04-24T04:55:02;23.40;49.10
44723;DHT22;30451;48.638;10.624;2023-04-24T04:57:28;23.40;49.10
44723;DHT22;30451;48.638;10.624;2023-04-24T04:59:54;23.40;49.00
44723;DHT22;30451;48.638;10.624;2023-04-24T05:02:20;23.40;49.10
44723;DHT22;30451;48.638;10.624;2023-04-24T05:04:45;23.40;49.10
44723;DHT22;30451;48.638;10.624;2023-04-24T05:07:11;23.40;49.20
44723;DHT22;30451;48.638;10.624;2023-04-24T05:09:37;23.40;49.10
44723;DHT22;30451;48.638;10.624;2023-04-24T05:12:03;23.40;49.10
44723;DHT22;30451;48.638;10.624;2023-04-24T05:14:29;23.40;49.10
44723;DHT22;30451;48.638;10.624;2023-04-24T05:16:54;23.40;49.10
44723;DHT22;30451;48.638;10.624;2023-04-24T05:19:20;23.40;49.10
44723;DHT22;30451;48.638;10.624;2023-04-24T05:21:46;23.40;49.10
44723;DHT22;30451;48.638;10.624;2023-04-24T05:24:11;23.40;49.10
44723;DHT22;30451;48.638;10.624;2023-04-24T05:26:37;23.40;49.10
44723;DHT22;30451;48.638;10.624;2023-04-24T05:29:03;23.40;49.10
44723;DHT22;30451;48.638;10.624;2023-04-24T05:31:29;23.40;49.10
44723;DHT22;30451;48.638;10.624;2023-04-24T05:33:55;23.40;49.10
44723;DHT22;30451;48.638;10.624;2023-04-24T05:36:20;23.40;49.10
44723;DHT22;30451;48.638;10.624;2023-04-24T05:38:46;23.40;49.10
44723;DHT22;30451;48.638;10.624;2023-04-24T05:41:11;23.40;49.10
44723;DHT22;30451;48.638;10.624;2023-04-24T05:43:37;23.30;49.10
44723;DHT22;30451;48.638;10.624;2023-04-24T05:46:02;23.30;49.10
44723;DHT22;30451;48.638;10.624;2023-04-24T05:48:28;23.30;49.10
44723;DHT22;30451;48.638;10.624;2023-04-24T05:50:54;23.40;49.10
44723;DHT22;30451;48.638;10.624;2023-04-24T05:53:19;23.40;49.10
44723;DHT22;30451;48.638;10.624;2023-04-24T05:55:45;23.30;49.10
44723;DHT22;30451;48.638;10.624;2023-04-24T05:58:11;23.30;49.10
44723;DHT22;30451;48.638;10.624;2023-04-24T06:00:37;23.30;49.10
44723;DHT22;30451;48.638;10.624;2023-04-24T06:03:05;23.30;49.00
44723;DHT22;30451;48.638;10.624;2023-04-24T06:05:31;23.30;49.10
44723;DHT22;30451;48.638;10.624;2023-04-24T06:07:56;23.30;49.00
44723;DHT22;30451;48.638;10.624;2023-04-24T06:10:22;23.30;49.10
44723;DHT22;30451;48.638;10.624;2023-04-24T06:12:47;23.30;49.10
44723;DHT22;30451;48.638;10.624;2023-04-24T06:15:13;23.30;49.10
44723;DHT22;30451;48.638;10.624;2023-04-24T06:17:38;23.30;49.00
44723;DHT22;30451;48.638;10.624;2023-04-24T06:20:05;23.30;49.00
44723;DHT22;30451;48.638;10.624;2023-04-24T06:22:32;23.30;49.00
44723;DHT22;30451;48.638;10.624;2023-04-24T06:24:57;23.30;49.00
44723;DHT22;30451;48.638;10.624;2023-04-24T06:27:23;23.30;49.00
44723;DHT22;30451;48.638;10.624;2023-04-24T06:29:48;23.30;49.00
44723;DHT22;30451;48.638;10.624;2023-04-24T06:32:21;23.30;49.00
44723;DHT22;30451;48.638;10.624;2023-04-24T06:34:47;23.30;49.00
44723;DHT22;30451;48.638;10.624;2023-04-24T06:37:13;23.30;49.00
44723;DHT22;30451;48.638;10.624;2023-04-24T06:39:39;23.20;49.00
44723;DHT22;30451;48.638;10.624;2023-04-24T06:42:05;23.30;49.00
44723;DHT22;30451;48.638;10.624;2023-04-24T06:44:30;23.20;49.00
44723;DHT22;30451;48.638;10.624;2023-04-24T06:46:56;23.30;49.00
44723;DHT22;30451;48.638;10.624;2023-04-24T06:49:21;23.30;49.00
44723;DHT22;30451;48.638;10.624;2023-04-24T06:51:47;23.20;49.00
44723;DHT22;30451;48.638;10.624;2023-04-24T06:54:12;23.20;49.00
44723;DHT22;30451;48.638;10.624;2023-04-24T06:56:38;23.20;49.50
44723;DHT22;30451;48.638;10.624;2023-04-24T06:59:04;23.20;49.00
44723;DHT22;30451;48.638;10.624;2023-04-24T07:01:30;23.20;49.00
44723;DHT22;30451;48.638;10.624;2023-04-24T07:03:55;23.20;49.00
44723;DHT22;30451;48.638;10.624;2023-04-24T07:06:21;23.20;49.00
44723;DHT22;30451;48.638;10.624;2023-04-24T07:08:48;23.20;49.00
44723;DHT22;30451;48.638;10.624;2023-04-24T07:11:14;23.20;49.00
44723;DHT22;30451;48.638;10.624;2023-04-24T07:13:39;23.20;49.00
44723;DHT22;30451;48.638;10.624;2023-04-24T07:16:07;23.20;49.00
44723;DHT22;30451;48.638;10.624;2023-04-24T07:18:33;23.20;49.00
44723;DHT22;30451;48.638;10.624;2023-04-24T07:20:59;23.20;49.00
44723;DHT22;30451;48.638;10.624;2023-04-24T07:23:25;23.20;49.00
44723;DHT22;30451;48.638;10.624;2023-04-24T07:25:50;23.10;49.00
44723;DHT22;30451;48.638;10.624;2023-04-24T07:28:16;23.20;49.00
44723;DHT22;30451;48.638;10.624;2023-04-24T07:30:43;23.20;49.00
44723;DHT22;30451;48.638;10.624;2023-04-24T07:33:08;23.20;49.00
44723;DHT22;30451;48.638;10.624;2023-04-24T07:35:36;23.10;49.00
44723;DHT22;30451;48.638;10.624;2023-04-24T07:38:02;23.20;49.00
44723;DHT22;30451;48.638;10.624;2023-04-24T07:40:28;23.10;49.00
44723;DHT22;30451;48.638;10.624;2023-04-24T07:42:53;23.10;48.90
44723;DHT22;30451;48.638;10.624;2023-04-24T07:45:19;23.10;49.00
44723;DHT22;30451;48.638;10.624;2023-04-24T07:47:44;23.10;49.00
44723;DHT22;30451;48.638;10.624;2023-04-24T07:50:12;23.10;49.00
44723;DHT22;30451;48.638;10.624;2023-04-24T07:52:38;23.10;49.10
44723;DHT22;30451;48.638;10.624;2023-04-24T07:55:04;23.10;49.10
44723;DHT22;30451;48.638;10.624;2023-04-24T07:57:30;23.10;49.00
44723;DHT22;30451;48.638;10.624;2023-04-24T07:59:55;23.10;49.00
44723;DHT22;30451;48.638;10.624;2023-04-24T08:02:21;23.10;49.60
44723;DHT22;30451;48.638;10.624;2023-04-24T08:04:54;23.10;49.10
44723;DHT22;30451;48.638;10.624;2023-04-24T08:07:20;23.10;49.10
44723;DHT22;30451;48.638;10.624;2023-04-24T08:09:46;23.00;49.00
44723;DHT22;30451;48.638;10.624;2023-04-24T08:12:15;23.10;49.10
44723;DHT22;30451;48.638;10.624;2023-04-24T08:14:40;23.00;49.00
44723;DHT22;30451;48.638;10.624;2023-04-24T08:17:06;23.00;49.10
44723;DHT22;30451;48.638;10.624;2023-04-24T08:19:31;23.00;49.10
44723;DHT22;30451;48.638;10.624;2023-04-24T08:21:57;23.00;49.00
44723;DHT22;30451;48.638;10.624;2023-04-24T08:24:23;23.00;49.00
44723;DHT22;30451;48.638;10.624;2023-04-24T08:26:48;23.00;49.00
44723;DHT22;30451;48.638;10.624;2023-04-24T08:29:19;23.00;49.10
44723;DHT22;30451;48.638;10.624;2023-04-24T08:31:44;23.00;49.10
44723;DHT22;30451;48.638;10.624;2023-04-24T08:34:10;23.00;49.10
44723;DHT22;30451;48.638;10.624;2023-04-24T08:36:36;23.00;49.10
44723;DHT22;30451;48.638;10.624;2023-04-24T08:39:02;23.00;49.10
44723;DHT22;30451;48.638;10.624;2023-04-24T08:41:28;23.00;49.10
44723;DHT22;30451;48.638;10.624;2023-04-24T08:43:54;23.00;49.00
44723;DHT22;30451;48.638;10.624;2023-04-24T08:46:20;23.00;49.00
44723;DHT22;30451;48.638;10.624;2023-04-24T08:48:48;23.00;49.00
44723;DHT22;30451;48.638;10.624;2023-04-24T08:51:14;23.00;49.00
44723;DHT22;30451;48.638;10.624;2023-04-24T08:53:40;22.90;49.00
44723;DHT22;30451;48.638;10.624;2023-04-24T08:56:06;23.00;49.10
44723;DHT22;30451;48.638;10.624;2023-04-24T08:58:33;22.90;49.10
44723;DHT22;30451;48.638;10.624;2023-04-24T09:00:58;23.00;49.10
44723;DHT22;30451;48.638;10.624;2023-04-24T09:03:27;22.90;49.00
44723;DHT22;30451;48.638;10.624;2023-04-24T09:05:53;22.90;49.10
44723;DHT22;30451;48.638;10.624;2023-04-24T09:08:22;22.90;49.10
44723;DHT22;30451;48.638;10.624;2023-04-24T09:10:49;22.90;49.10
44723;DHT22;30451;48.638;10.624;2023-04-24T09:13:14;22.90;49.10
44723;DHT22;30451;48.638;10.624;2023-04-24T09:15:41;22.90;49.10
44723;DHT22;30451;48.638;10.624;2023-04-24T09:18:07;22.90;49.10
44723;DHT22;30451;48.638;10.624;2023-04-24T09:20:32;22.90;49.10
44723;DHT22;30451;48.638;10.624;2023-04-24T09:22:59;22.90;49.10
44723;DHT22;30451;48.638;10.624;2023-04-24T09:25:34;22.90;49.10
44723;DHT22;30451;48.638;10.624;2023-04-24T09:28:04;22.90;49.10
44723;DHT22;30451;48.638;10.624;2023-04-24T09:30:31;22.90;49.10
44723;DHT22;30451;48.638;10.624;2023-04-24T09:33:13;22.90;49.10
44723;DHT22;30451;48.638;10.624;2023-04-24T09:35:48;22.90;49.20
44723;DHT22;30451;48.638;10.624;2023-04-24T09:38:14;22.90;49.10
44723;DHT22;30451;48.638;10.624;2023-04-24T09:40:39;22.90;49.20
44723;DHT22;30451;48.638;10.624;2023-04-24T09:43:10;22.90;49.20
44723;DHT22;30451;48.638;10.624;2023-04-24T09:45:38;22.90;49.20
44723;DHT22;30451;48.638;10.624;2023-04-24T09:48:04;22.90;49.20
44723;DHT22;30451;48.638;10.624;2023-04-24T09:50:32;22.90;49.20
44723;DHT22;30451;48.638;10.624;2023-04-24T09:53:02;22.90;49.20
44723;DHT22;30451;48.638;10.624;2023-04-24T09:55:29;22.90;49.20
44723;DHT22;30451;48.638;10.624;2023-04-24T09:58:00;22.90;49.20
44723;DHT22;30451;48.638;10.624;2023-04-24T10:00:27;22.90;49.20
44723;DHT22;30451;48.638;10.624;2023-04-24T10:02:58;22.80;49.10
44723;DHT22;30451;48.638;10.624;2023-04-24T10:05:34;22.80;49.10
44723;DHT22;30451;48.638;10.624;2023-04-24T10:10:31;22.80;49.10
44723;DHT22;30451;48.638;10.624;2023-04-24T10:12:57;22.80;49.10
44723;DHT22;30451;48.638;10.624;2023-04-24T10:15:22;22.80;49.00
44723;DHT22;30451;48.638;10.624;2023-04-24T10:17:49;22.90;49.00
44723;DHT22;30451;48.638;10.624;2023-04-24T10:20:25;22.90;49.00
44723;DHT22;30451;48.638;10.624;2023-04-24T10:22:53;22.80;48.90
44723;DHT22;30451;48.638;10.624;2023-04-24T10:25:20;22.80;48.90
44723;DHT22;30451;48.638;10.624;2023-04-24T10:27:47;22.80;48.90
44723;DHT22;30451;48.638;10.624;2023-04-24T10:30:14;22.80;48.90
44723;DHT22;30451;48.638;10.624;2023-04-24T10:32:40;22.80;48.80
44723;DHT22;30451;48.638;10.624;2023-04-24T10:35:09;22.80;48.80
44723;DHT22;30451;48.638;10.624;2023-04-24T10:37:39;22.80;48.80
44723;DHT22;30451;48.638;10.624;2023-04-24T10:40:07;22.80;48.80
44723;DHT22;30451;48.638;10.624;2023-04-24T10:42:34;22.90;48.80
44723;DHT22;30451;48.638;10.624;2023-04-24T10:45:04;22.80;48.80
44723;DHT22;30451;48.638;10.624;2023-04-24T10:47:30;22.80;48.80
44723;DHT22;30451;48.638;10.624;2023-04-24T10:50:09;22.80;48.80
44723;DHT22;30451;48.638;10.624;2023-04-24T10:52:48;22.80;48.70
44723;DHT22;30451;48.638;10.624;2023-04-24T10:55:16;22.80;48.70
44723;DHT22;30451;48.638;10.624;2023-04-24T10:58:03;22.80;48.70
44723;DHT22;30451;48.638;10.624;2023-04-24T11:00:29;22.80;48.70
44723;DHT22;30451;48.638;10.624;2023-04-24T11:02:55;22.80;48.60
44723;DHT22;30451;48.638;10.624;2023-04-24T11:05:22;22.80;48.70
44723;DHT22;30451;48.638;10.624;2023-04-24T11:08:14;22.80;48.70
44723;DHT22;30451;48.638;10.624;2023-04-24T11:10:45;22.80;48.60
44723;DHT22;30451;48.638;10.624;2023-04-24T11:13:14;22.80;48.70
44723;DHT22;30451;48.638;10.624;2023-04-24T11:15:41;22.80;48.70
44723;DHT22;30451;48.638;10.624;2023-04-24T11:18:13;22.80;48.60
44723;DHT22;30451;48.638;10.624;2023-04-24T11:20:42;22.80;48.60
44723;DHT22;30451;48.638;10.624;2023-04-24T11:23:08;22.80;48.60
44723;DHT22;30451;48.638;10.624;2023-04-24T11:25:35;22.80;48.60
44723;DHT22;30451;48.638;10.624;2023-04-24T11:28:05;22.80;48.60
44723;DHT22;30451;48.638;10.624;2023-04-24T11:30:32;22.70;48.60
44723;DHT22;30451;48.638;10.624;2023-04-24T11:33:04;22.80;48.60
44723;DHT22;30451;48.638;10.624;2023-04-24T11:35:35;22.80;48.60
44723;DHT22;30451;48.638;10.624;2023-04-24T11:38:03;22.80;48.60
44723;DHT22;30451;48.638;10.624;2023-04-24T11:40:29;22.70;48.50
44723;DHT22;30451;48.638;10.624;2023-04-24T11:42:55;22.70;48.60
44723;DHT22;30451;48.638;10.624;2023-04-24T11:45:29;22.70;48.60
44723;DHT22;30451;48.638;10.624;2023-04-24T11:47:55;22.70;48.60
44723;DHT22;30451;48.638;10.624;2023-04-24T11:50:23;22.80;48.60
44723;DHT22;30451;48.638;10.624;2023-04-24T11:52:49;22.70;48.60
44723;DHT22;30451;48.638;10.624;2023-04-24T11:57:53;22.70;48.50
44723;DHT22;30451;48.638;10.624;2023-04-24T12:00:21;22.70;48.50
44723;DHT22;30451;48.638;10.624;2023-04-24T12:02:48;22.70;48.60
44723;DHT22;30451;48.638;10.624;2023-04-24T12:05:23;22.70;48.60
44723;DHT22;30451;48.638;10.624;2023-04-24T12:07:49;22.70;48.50
44723;DHT22;30451;48.638;10.624;2023-04-24T12:10:27;22.70;48.50
44723;DHT22;30451;48.638;10.624;2023-04-24T12:12:54;22.70;48.50
44723;DHT22;30451;48.638;10.624;2023-04-24T12:15:21;22.70;48.50
44723;DHT22;30451;48.638;10.624;2023-04-24T12:17:47;22.80;48.60
44723;DHT22;30451;48.638;10.624;2023-04-24T12:20:13;22.70;48.60
44723;DHT22;30451;48.638;10.624;2023-04-24T12:22:49;22.70;48.60
44723;DHT22;30451;48.638;10.624;2023-04-24T12:25:16;22.70;48.60
44723;DHT22;30451;48.638;10.624;2023-04-24T12:27:51;22.70;48.60
44723;DHT22;30451;48.638;10.624;2023-04-24T12:30:18;22.70;48.60
44723;DHT22;30451;48.638;10.624;2023-04-24T12:32:48;22.70;48.60
44723;DHT22;30451;48.638;10.624;2023-04-24T12:35:19;22.70;48.60
44723;DHT22;30451;48.638;10.624;2023-04-24T12:37:46;22.70;48.70
44723;DHT22;30451;48.638;10.624;2023-04-24T12:40:13;22.70;48.70
44723;DHT22;30451;48.638;10.624;2023-04-24T12:42:44;22.70;48.70
44723;DHT22;30451;48.638;10.624;2023-04-24T12:45:10;22.70;48.70
44723;DHT22;30451;48.638;10.624;2023-04-24T12:47:37;22.70;48.70
44723;DHT22;30451;48.638;10.624;2023-04-24T12:50:04;22.70;48.70
44723;DHT22;30451;48.638;10.624;2023-04-24T12:52:30;22.70;48.70
44723;DHT22;30451;48.638;10.624;2023-04-24T12:54:58;22.70;48.70
44723;DHT22;30451;48.638;10.624;2023-04-24T12:57:25;22.70;48.70
44723;DHT22;30451;48.638;10.624;2023-04-24T12:59:53;22.70;48.70
44723;DHT22;30451;48.638;10.624;2023-04-24T13:02:18;22.70;48.70
44723;DHT22;30451;48.638;10.624;2023-04-24T13:04:45;22.70;48.70
44723;DHT22;30451;48.638;10.624;2023-04-24T13:07:12;22.70;48.70
44723;DHT22;30451;48.638;10.624;2023-04-24T13:09:39;22.70;48.70
44723;DHT22;30451;48.638;10.624;2023-04-24T13:12:05;22.70;48.60
44723;DHT22;30451;48.638;10.624;2023-04-24T13:14:33;22.70;48.60
44723;DHT22;30451;48.638;10.624;2023-04-24T13:16:59;22.70;48.60
44723;DHT22;30451;48.638;10.624;2023-04-24T13:19:25;22.70;48.60
44723;DHT22;30451;48.638;10.624;2023-04-24T13:21:52;22.70;48.60
44723;DHT22;30451;48.638;10.624;2023-04-24T13:24:18;22.70;48.60
44723;DHT22;30451;48.638;10.624;2023-04-24T13:26:43;22.70;48.60
44723;DHT22;30451;48.638;10.624;2023-04-24T13:29:09;22.70;48.60
44723;DHT22;30451;48.638;10.624;2023-04-24T13:31:35;22.70;48.60
44723;DHT22;30451;48.638;10.624;2023-04-24T13:34:02;22.70;48.60
44723;DHT22;30451;48.638;10.624;2023-04-24T13:36:28;22.70;48.60
44723;DHT22;30451;48.638;10.624;2023-04-24T13:38:53;22.70;48.60
44723;DHT22;30451;48.638;10.624;2023-04-24T13:41:19;22.70;48.60
44723;DHT22;30451;48.638;10.624;2023-04-24T13:43:45;22.70;48.60
44723;DHT22;30451;48.638;10.624;2023-04-24T13:46:10;22.70;48.60
44723;DHT22;30451;48.638;10.624;2023-04-24T13:48:36;22.70;48.60
44723;DHT22;30451;48.638;10.624;2023-04-24T13:51:01;22.70;48.60
44723;DHT22;30451;48.638;10.624;2023-04-24T13:53:27;22.70;48.60
44723;DHT22;30451;48.638;10.624;2023-04-24T13:55:53;22.70;48.50
44723;DHT22;30451;48.638;10.624;2023-04-24T13:58:18;22.70;48.50
44723;DHT22;30451;48.638;10.624;2023-04-24T14:00:44;22.70;48.50
44723;DHT22;30451;48.638;10.624;2023-04-24T14:03:10;22.70;48.50
44723;DHT22;30451;48.638;10.624;2023-04-24T14:05:36;22.70;48.60
44723;DHT22;30451;48.638;10.624;2023-04-24T14:08:01;22.70;48.60
44723;DHT22;30451;48.638;10.624;2023-04-24T14:10:27;22.60;48.50
44723;DHT22;30451;48.638;10.624;2023-04-24T14:12:53;22.70;48.60
44723;DHT22;30451;48.638;10.624;2023-04-24T14:15:19;22.60;48.50
44723;DHT22;30451;48.638;10.624;2023-04-24T14:17:45;22.60;48.50
44723;DHT22;30451;48.638;10.624;2023-04-24T14:20:12;22.60;48.50
44723;DHT22;30451;48.638;10.624;2023-04-24T14:22:37;22.70;48.60
44723;DHT22;30451;48.638;10.624;2023-04-24T14:25:04;22.60;48.50
44723;DHT22;30451;48.638;10.624;2023-04-24T14:27:31;22.60;48.50
44723;DHT22;30451;48.638;10.624;2023-04-24T14:29:57;22.60;48.50
44723;DHT22;30451;48.638;10.624;2023-04-24T14:32:22;22.60;48.50
44723;DHT22;30451;48.638;10.624;2023-04-24T14:34:48;22.60;48.50
44723;DHT22;30451;48.638;10.624;2023-04-24T14:37:14;22.60;48.50
44723;DHT22;30451;48.638;10.624;2023-04-24T14:39:39;22.60;48.50
44723;DHT22;30451;48.638;10.624;2023-04-24T14:42:05;22.60;48.50
44723;DHT22;30451;48.638;10.624;2023-04-24T14:44:31;22.60;48.50
44723;DHT22;30451;48.638;10.624;2023-04-24T14:46:58;22.60;48.50
44723;DHT22;30451;48.638;10.624;2023-04-24T14:49:24;22.60;48.50
44723;DHT22;30451;48.638;10.624;2023-04-24T14:51:49;22.60;48.50
44723;DHT22;30451;48.638;10.624;2023-04-24T14:54:15;22.60;48.50
44723;DHT22;30451;48.638;10.624;2023-04-24T14:56:41;22.60;48.50
44723;DHT22;30451;48.638;10.624;2023-04-24T14:59:08;22.60;48.50
44723;DHT22;30451;48.638;10.624;2023-04-24T15:01:33;22.60;48.50
44723;DHT22;30451;48.638;10.624;2023-04-24T15:03:59;22.60;48.60
44723;DHT22;30451;48.638;10.624;2023-04-24T15:06:25;22.60;48.60
44723;DHT22;30451;48.638;10.624;2023-04-24T15:08:51;22.60;49.10
44723;DHT22;30451;48.638;10.624;2023-04-24T15:11:17;22.60;48.70
44723;DHT22;30451;48.638;10.624;2023-04-24T15:13:42;22.60;48.70
44723;DHT22;30451;48.638;10.624;2023-04-24T15:16:10;22.60;48.70